Time;durP1;ratioP1;P1;durP2;ratioP2;P2;SDS_P1;SDS_P2;PMS_P1;PMS_P2;Temp;Humidity;BMP_temperature;BMP_pressure;BME280_temperature;BME280_humidity;BME280_pressure;Samples;Min_cycle;Max_cycle;Signal;HPM_P1;HPM_P2
2022/10/06 00:01:02;;;;;;;0.20;0.20;;;20.90;85.30;;;;;;5144801;27;45415;-73
2022/10/06 00:03:30;;;;;;;0.38;0.20;;;20.90;85.20;;;;;;5137757;27;45465;-73
2022/10/06 00:06:00;;;;;;;0.10;0.10;;;20.90;85.30;;;;;;5143716;27;45512;-73
2022/10/06 00:08:27;;;;;;;0.80;0.30;;;20.90;85.40;;;;;;5133476;27;45382;-74
2022/10/06 00:10:55;;;;;;;0.50;0.20;;;20.90;85.30;;;;;;5144661;27;45383;-73
2022/10/06 00:13:22;;;;;;;1.13;0.20;;;20.90;85.20;;;;;;5135438;27;48538;-73
2022/10/06 00:15:51;;;;;;;1.17;0.40;;;20.90;85.30;;;;;;5138310;27;45390;-73
2022/10/06 00:18:17;;;;;;;1.05;0.38;;;20.90;85.20;;;;;;5147432;27;45340;-73
2022/10/06 00:20:44;;;;;;;0.68;0.28;;;20.90;85.20;;;;;;5141069;27;45506;-73
2022/10/06 00:23:11;;;;;;;0.52;0.17;;;20.90;85.30;;;;;;5142964;27;47024;-73
2022/10/06 00:25:38;;;;;;;0.52;0.10;;;20.90;85.20;;;;;;5146403;27;45312;-73
2022/10/06 00:28:05;;;;;;;0.20;0.20;;;20.90;85.30;;;;;;5146806;27;45376;-74
2022/10/06 00:30:32;;;;;;;0.17;0.17;;;20.90;85.40;;;;;;5148701;27;45265;-73
2022/10/06 00:33:02;;;;;;;0.43;0.25;;;20.90;85.40;;;;;;5145836;27;47526;-73
2022/10/06 00:35:32;;;;;;;0.63;0.10;;;20.90;85.40;;;;;;5139554;27;46146;-73
2022/10/06 00:37:59;;;;;;;0.65;0.20;;;20.90;85.40;;;;;;5138799;27;45422;-73
2022/10/06 00:40:27;;;;;;;1.23;0.20;;;20.90;85.40;;;;;;5147176;27;45292;-73
2022/10/06 00:42:57;;;;;;;0.20;0.20;;;20.90;85.60;;;;;;5145834;27;46286;-73
2022/10/06 00:45:29;;;;;;;0.20;0.13;;;20.90;85.60;;;;;;5146967;27;45469;-74
2022/10/06 00:48:00;;;;;;;0.50;0.30;;;20.90;85.60;;;;;;5144159;27;45475;-73
2022/10/06 00:50:28;;;;;;;0.93;0.30;;;20.90;85.60;;;;;;5126108;27;45521;-73
2022/10/06 00:52:55;;;;;;;0.73;0.30;;;20.90;85.50;;;;;;5134001;27;46593;-73
2022/10/06 00:55:22;;;;;;;0.47;0.20;;;20.90;85.60;;;;;;5146813;27;45287;-73
2022/10/06 00:57:51;;;;;;;0.28;0.22;;;20.90;85.50;;;;;;5141483;27;45570;-73
2022/10/06 01:00:19;;;;;;;0.30;0.20;;;20.90;85.40;;;;;;5140486;27;45586;-73
2022/10/06 01:02:50;;;;;;;1.27;0.22;;;20.90;85.60;;;;;;5147116;27;47939;-73
2022/10/06 01:05:27;;;;;;;0.30;0.20;;;20.90;85.50;;;;;;5133070;27;45356;-72
2022/10/06 01:07:54;;;;;;;0.50;0.20;;;20.90;85.40;;;;;;5142554;27;45259;-73
2022/10/06 01:10:20;;;;;;;0.68;0.25;;;20.90;85.50;;;;;;5148451;27;45441;-73
2022/10/06 01:12:47;;;;;;;0.22;0.20;;;20.90;85.40;;;;;;5147637;27;47722;-74
2022/10/06 01:15:15;;;;;;;0.10;0.10;;;20.90;85.40;;;;;;5140795;27;45571;-73
2022/10/06 01:17:49;;;;;;;0.68;0.20;;;20.90;85.40;;;;;;5144218;27;45598;-73
2022/10/06 01:20:19;;;;;;;0.30;0.20;;;20.90;85.40;;;;;;5132607;27;45284;-73
2022/10/06 01:22:51;;;;;;;0.20;0.20;;;20.90;85.40;;;;;;5147212;27;46513;-73
2022/10/06 01:25:19;;;;;;;0.63;0.20;;;20.90;85.30;;;;;;5141097;27;45398;-74
2022/10/06 01:27:52;;;;;;;1.05;0.40;;;20.90;85.40;;;;;;5146856;27;45480;-73
2022/10/06 01:30:23;;;;;;;1.70;0.20;;;20.90;85.30;;;;;;5144475;27;45486;-74
2022/10/06 01:32:50;;;;;;;0.40;0.25;;;20.80;85.20;;;;;;5147044;27;47487;-73
2022/10/06 01:35:17;;;;;;;0.43;0.10;;;20.80;85.20;;;;;;5137560;27;45402;-74
2022/10/06 01:37:43;;;;;;;0.32;0.20;;;20.80;85.20;;;;;;5145984;27;45378;-73
2022/10/06 01:40:12;;;;;;;0.55;0.20;;;20.80;85.10;;;;;;5145048;27;45454;-73
2022/10/06 01:42:39;;;;;;;0.25;0.22;;;20.80;85.00;;;;;;5140046;27;46582;-73
2022/10/06 01:45:07;;;;;;;0.30;0.20;;;20.80;85.10;;;;;;5146432;27;45438;-73
2022/10/06 01:47:35;;;;;;;0.32;0.25;;;20.80;85.10;;;;;;5146046;27;45341;-73
2022/10/06 01:50:01;;;;;;;0.38;0.28;;;20.80;85.10;;;;;;5144568;27;45427;-73
2022/10/06 01:52:28;;;;;;;0.65;0.28;;;20.80;85.00;;;;;;5140831;27;47460;-73
2022/10/06 01:54:55;;;;;;;0.70;0.38;;;20.80;85.00;;;;;;5146524;27;45316;-74
2022/10/06 01:57:23;;;;;;;0.05;0.05;;;20.80;85.00;;;;;;5141313;27;45567;-73
2022/10/06 01:59:50;;;;;;;0.25;0.10;;;20.80;86.10;;;;;;5141139;27;45340;-74
2022/10/06 02:02:16;;;;;;;0.32;0.20;;;20.80;84.90;;;;;;5128166;27;46313;-73
2022/10/06 02:04:43;;;;;;;0.22;0.10;;;20.80;85.00;;;;;;5138847;27;45958;-74
2022/10/06 02:07:10;;;;;;;0.63;0.22;;;20.80;84.90;;;;;;5135425;27;45976;-73
2022/10/06 02:09:37;;;;;;;0.30;0.20;;;20.80;84.80;;;;;;5146203;27;45604;-73
2022/10/06 02:12:04;;;;;;;0.10;0.10;;;20.80;84.90;;;;;;5146498;27;48549;-73
2022/10/06 02:14:33;;;;;;;0.30;0.13;;;20.80;84.80;;;;;;5141732;27;45839;-73
2022/10/06 02:17:00;;;;;;;0.70;0.30;;;20.80;84.90;;;;;;5134501;27;45413;-73
2022/10/06 02:19:27;;;;;;;1.00;0.30;;;20.80;84.80;;;;;;5135495;27;45659;-73
2022/10/06 02:21:54;;;;;;;0.55;0.20;;;20.80;84.90;;;;;;5146565;27;47650;-73
2022/10/06 02:24:21;;;;;;;0.80;0.30;;;20.80;84.90;;;;;;5144578;27;45549;-73
2022/10/06 02:26:48;;;;;;;0.30;0.30;;;20.80;84.80;;;;;;5134755;27;45464;-74
2022/10/06 02:29:15;;;;;;;0.47;0.30;;;20.80;85.90;;;;;;5145973;27;45284;-73
2022/10/06 02:31:43;;;;;;;2.35;0.47;;;20.80;84.70;;;;;;5138274;27;45359;-73
2022/10/06 02:34:10;;;;;;;1.00;0.30;;;20.80;84.80;;;;;;5145879;27;45386;-73
2022/10/06 02:36:37;;;;;;;0.43;0.20;;;20.80;84.60;;;;;;5142387;27;45284;-73
2022/10/06 02:39:04;;;;;;;0.60;0.20;;;20.80;84.70;;;;;;5146770;27;45498;-73
2022/10/06 02:41:31;;;;;;;0.68;0.20;;;20.80;84.60;;;;;;5133853;27;46612;-73
2022/10/06 02:43:58;;;;;;;0.35;0.13;;;20.80;84.40;;;;;;5135384;27;45296;-74
2022/10/06 02:46:25;;;;;;;0.30;0.17;;;20.80;84.40;;;;;;5136581;27;45531;-73
2022/10/06 02:48:53;;;;;;;1.17;0.50;;;20.80;85.30;;;;;;5142102;27;45342;-73
2022/10/06 02:51:21;;;;;;;1.23;0.45;;;20.80;84.30;;;;;;5141236;27;47506;-73
2022/10/06 02:53:49;;;;;;;1.17;0.30;;;20.80;84.20;;;;;;5146488;27;45371;-73
2022/10/06 02:56:18;;;;;;;1.50;0.50;;;20.80;84.20;;;;;;5142844;27;45418;-73
2022/10/06 02:58:47;;;;;;;0.55;0.20;;;20.80;84.10;;;;;;5139047;27;45358;-73
2022/10/06 03:01:16;;;;;;;1.40;0.40;;;20.80;84.20;;;;;;5145688;27;47567;-73
2022/10/06 03:03:45;;;;;;;0.25;0.10;;;20.80;84.20;;;;;;5145310;27;45333;-74
2022/10/06 03:06:22;;;;;;;0.50;0.20;;;20.80;84.30;;;;;;5138062;27;45301;-73
2022/10/06 03:08:49;;;;;;;1.00;0.40;;;20.80;84.00;;;;;;5145444;27;45201;-73
2022/10/06 03:11:18;;;;;;;1.17;0.45;;;20.80;84.20;;;;;;5142229;27;46651;-73
2022/10/06 03:13:45;;;;;;;1.10;0.30;;;20.70;84.10;;;;;;5140363;27;45965;-73
2022/10/06 03:16:16;;;;;;;0.32;0.22;;;20.70;84.20;;;;;;5142738;27;45472;-73
2022/10/06 03:18:44;;;;;;;1.45;0.30;;;20.70;84.10;;;;;;5143514;27;45460;-73
2022/10/06 03:21:13;;;;;;;0.20;0.20;;;20.70;84.10;;;;;;5147803;27;47663;-74
2022/10/06 03:23:40;;;;;;;3.75;0.30;;;20.70;83.90;;;;;;5144556;27;45329;-73
2022/10/06 03:26:07;;;;;;;0.85;0.30;;;20.70;84.00;;;;;;5139554;27;45367;-73
2022/10/06 03:28:34;;;;;;;1.42;0.45;;;20.70;83.80;;;;;;5145955;27;45295;-73
2022/10/06 03:31:02;;;;;;;1.02;0.30;;;20.70;83.60;;;;;;5136228;27;46388;-74
2022/10/06 03:33:30;;;;;;;0.55;0.28;;;20.70;83.60;;;;;;5140005;27;45315;-73
2022/10/06 03:36:01;;;;;;;0.57;0.30;;;20.80;83.60;;;;;;5144048;27;45495;-73
2022/10/06 03:38:30;;;;;;;0.82;0.40;;;20.80;83.50;;;;;;5143046;27;45444;-73
2022/10/06 03:41:03;;;;;;;1.15;0.47;;;20.80;83.50;;;;;;5144291;27;47524;-73
2022/10/06 03:43:30;;;;;;;0.65;0.28;;;20.80;83.40;;;;;;5141691;27;45466;-73
2022/10/06 03:45:59;;;;;;;3.30;0.52;;;20.80;83.30;;;;;;5143721;27;45337;-73
2022/10/06 03:48:26;;;;;;;0.50;0.25;;;20.70;83.20;;;;;;5142617;27;45484;-73
2022/10/06 03:50:57;;;;;;;0.85;0.28;;;20.70;83.10;;;;;;5143337;27;45453;-73
2022/10/06 03:53:26;;;;;;;0.80;0.22;;;20.70;83.30;;;;;;5142296;27;45316;-72
2022/10/06 03:56:02;;;;;;;0.25;0.20;;;20.70;83.20;;;;;;5144287;27;45295;-73
2022/10/06 03:58:29;;;;;;;2.20;0.40;;;20.70;83.10;;;;;;5143989;27;45391;-73
2022/10/06 04:01:01;;;;;;;1.45;0.30;;;20.70;83.10;;;;;;5138356;27;45381;-73
2022/10/06 04:03:28;;;;;;;0.73;0.35;;;20.70;83.00;;;;;;5139018;27;45299;-73
2022/10/06 04:05:56;;;;;;;2.10;0.30;;;20.70;83.00;;;;;;5130245;27;45385;-73
2022/10/06 04:08:23;;;;;;;0.95;0.30;;;20.70;83.00;;;;;;5140759;27;45439;-73
2022/10/06 04:10:49;;;;;;;1.42;0.43;;;20.70;82.90;;;;;;5129240;27;46654;-73
2022/10/06 04:13:19;;;;;;;0.90;0.50;;;20.70;82.80;;;;;;5140549;27;45363;-73
2022/10/06 04:15:47;;;;;;;2.35;0.55;;;20.70;82.60;;;;;;5144212;27;45488;-73
2022/10/06 04:18:15;;;;;;;0.50;0.30;;;20.70;82.50;;;;;;5143920;27;45501;-73
2022/10/06 04:20:42;;;;;;;1.33;0.55;;;20.70;82.40;;;;;;5142719;27;46430;-73
2022/10/06 04:23:09;;;;;;;0.22;0.20;;;20.70;82.50;;;;;;5142131;27;45387;-73
2022/10/06 04:25:36;;;;;;;1.45;0.43;;;20.70;82.30;;;;;;5144461;27;45518;-73
2022/10/06 04:28:03;;;;;;;0.60;0.30;;;20.70;82.20;;;;;;5143312;27;45568;-73
2022/10/06 04:30:31;;;;;;;1.38;0.50;;;20.70;82.10;;;;;;5140804;27;47699;-73
2022/10/06 04:32:58;;;;;;;1.17;0.40;;;20.70;82.00;;;;;;5124142;27;45324;-73
2022/10/06 04:35:26;;;;;;;0.40;0.30;;;20.70;81.90;;;;;;5135460;27;45543;-73
2022/10/06 04:37:54;;;;;;;0.88;0.50;;;20.70;81.90;;;;;;5140362;27;45426;-74
2022/10/06 04:40:21;;;;;;;0.57;0.30;;;20.70;82.00;;;;;;5140376;27;46681;-74
2022/10/06 04:42:49;;;;;;;1.65;0.30;;;20.70;81.90;;;;;;5144510;27;45417;-73
2022/10/06 04:45:17;;;;;;;2.25;0.47;;;20.70;81.90;;;;;;5135022;27;45330;-73
2022/10/06 04:47:49;;;;;;;1.33;0.43;;;20.70;81.50;;;;;;5139371;27;45661;-73
2022/10/06 04:50:17;;;;;;;1.50;0.50;;;20.70;80.50;;;;;;5133798;27;46633;-72
2022/10/06 04:52:43;;;;;;;1.08;0.40;;;20.70;79.40;;;;;;5143096;27;45377;-73
2022/10/06 04:55:11;;;;;;;1.05;0.40;;;20.70;78.80;;;;;;5141637;27;45292;-73
2022/10/06 04:57:37;;;;;;;3.83;0.60;;;20.70;78.80;;;;;;5140159;27;45692;-73
2022/10/06 05:00:24;;;;;;;1.45;0.70;;;20.70;78.90;;;;;;5142949;27;46617;-74
2022/10/06 05:02:53;;;;;;;1.33;0.40;;;20.60;78.80;;;;;;5143111;27;45352;-73
2022/10/06 05:05:20;;;;;;;1.45;0.38;;;20.60;79.60;;;;;;5141153;27;45498;-74
2022/10/06 05:07:46;;;;;;;2.25;0.40;;;20.60;79.80;;;;;;5147245;27;45453;-73
2022/10/06 05:10:13;;;;;;;1.15;0.50;;;20.60;79.60;;;;;;5144496;27;45709;-73
2022/10/06 05:12:40;;;;;;;1.45;0.57;;;20.60;79.00;;;;;;5131301;27;45422;-74
2022/10/06 05:15:08;;;;;;;3.20;0.70;;;20.60;79.30;;;;;;5156023;27;45564;-73
2022/10/06 05:17:36;;;;;;;2.60;0.65;;;20.70;79.20;;;;;;5141565;27;45485;-72
2022/10/06 05:20:05;;;;;;;2.90;0.65;;;20.70;78.80;;;;;;5141364;27;48216;-73
2022/10/06 05:22:31;;;;;;;1.05;0.50;;;20.70;78.90;;;;;;5147295;27;45781;-72
2022/10/06 05:24:58;;;;;;;2.13;0.60;;;20.70;79.00;;;;;;5140462;27;45455;-73
2022/10/06 05:27:25;;;;;;;1.60;0.50;;;20.70;79.30;;;;;;5139792;27;45311;-74
2022/10/06 05:29:52;;;;;;;0.98;0.40;;;20.70;79.50;;;;;;5124061;27;46669;-73
2022/10/06 05:32:19;;;;;;;1.65;0.80;;;20.70;79.50;;;;;;5142944;27;45512;-73
2022/10/06 05:34:45;;;;;;;2.55;0.80;;;20.70;79.70;;;;;;5142495;27;45393;-73
2022/10/06 05:37:13;;;;;;;0.40;0.30;;;20.70;79.80;;;;;;5139592;27;45367;-74
2022/10/06 05:39:40;;;;;;;2.67;0.88;;;20.70;79.80;;;;;;5139609;27;45439;-74
2022/10/06 05:42:07;;;;;;;3.03;0.57;;;20.80;79.90;;;;;;5143098;27;45390;-73
2022/10/06 05:44:34;;;;;;;1.88;0.50;;;20.70;80.10;;;;;;5142817;27;45403;-73
2022/10/06 05:47:00;;;;;;;2.92;0.68;;;20.70;79.90;;;;;;5138955;27;45572;-73
2022/10/06 05:49:27;;;;;;;2.45;0.90;;;20.70;80.00;;;;;;5143225;27;45338;-74
2022/10/06 05:51:54;;;;;;;2.78;0.75;;;20.70;80.10;;;;;;5133764;27;45386;-72
2022/10/06 05:54:22;;;;;;;2.65;0.60;;;20.70;80.00;;;;;;5138979;27;45392;-73
2022/10/06 05:56:50;;;;;;;1.52;0.65;;;20.70;80.10;;;;;;5144676;27;45380;-73
2022/10/06 05:59:16;;;;;;;1.67;0.82;;;20.70;80.10;;;;;;5138431;27;47232;-73
2022/10/06 06:01:44;;;;;;;1.95;0.52;;;20.70;80.10;;;;;;5136793;27;45411;-73
2022/10/06 06:04:12;;;;;;;2.58;0.70;;;20.70;80.00;;;;;;5137801;27;45345;-73
2022/10/06 06:06:40;;;;;;;1.13;0.40;;;20.70;80.10;;;;;;5138725;27;45273;-73
2022/10/06 06:09:09;;;;;;;1.70;0.70;;;20.70;80.10;;;;;;5146115;27;46556;-73
2022/10/06 06:11:39;;;;;;;23.88;2.22;;;20.70;80.10;;;;;;5139098;27;45370;-75
2022/10/06 06:14:07;;;;;;;7.80;0.90;;;20.80;80.00;;;;;;5140383;27;45308;-75
2022/10/06 06:16:34;;;;;;;4.20;0.85;;;20.80;80.00;;;;;;5145135;27;45564;-75
2022/10/06 06:19:02;;;;;;;2.75;0.68;;;20.80;80.10;;;;;;5138756;27;46746;-75
2022/10/06 06:21:29;;;;;;;2.90;0.80;;;20.70;80.00;;;;;;5136572;27;45466;-75
2022/10/06 06:23:56;;;;;;;9.18;0.90;;;20.70;80.10;;;;;;5134565;27;45437;-75
2022/10/06 06:26:25;;;;;;;4.30;1.23;;;20.70;80.30;;;;;;5143598;27;45419;-74
2022/10/06 06:28:55;;;;;;;4.38;0.70;;;20.70;80.20;;;;;;5145363;27;48082;-75
2022/10/06 06:31:25;;;;;;;2.20;0.70;;;20.70;80.20;;;;;;5144858;27;45390;-75
2022/10/06 06:33:54;;;;;;;5.47;0.75;;;20.70;80.10;;;;;;5146970;27;45500;-75
2022/10/06 06:36:23;;;;;;;3.03;1.02;;;20.70;80.10;;;;;;5145788;27;45440;-75
2022/10/06 06:38:51;;;;;;;4.93;0.80;;;20.70;80.20;;;;;;5137872;27;47494;-75
2022/10/06 06:41:21;;;;;;;4.38;0.95;;;20.80;80.10;;;;;;5145280;27;45768;-75
2022/10/06 06:43:48;;;;;;;3.50;0.65;;;20.80;80.20;;;;;;5146963;27;45352;-75
2022/10/06 06:46:18;;;;;;;3.45;1.10;;;20.70;80.00;;;;;;5135718;27;45458;-75
2022/10/06 06:48:46;;;;;;;1.75;0.57;;;20.80;80.00;;;;;;5126174;27;46322;-74
2022/10/06 06:51:13;;;;;;;1.73;0.80;;;20.80;80.00;;;;;;5144201;27;45491;-74
2022/10/06 06:53:40;;;;;;;2.08;0.75;;;20.80;79.90;;;;;;5144290;27;45637;-74
2022/10/06 06:56:08;;;;;;;2.72;0.70;;;20.80;80.10;;;;;;5145159;27;45345;-75
2022/10/06 06:58:36;;;;;;;2.40;0.57;;;20.80;80.00;;;;;;5145286;27;46842;-75
2022/10/06 07:01:07;;;;;;;4.28;0.80;;;20.80;79.90;;;;;;5141874;27;45362;-75
2022/10/06 07:03:35;;;;;;;1.75;0.50;;;20.80;79.90;;;;;;5145639;27;45426;-74
2022/10/06 07:06:08;;;;;;;5.22;0.70;;;20.70;79.70;;;;;;5137563;27;45411;-75
2022/10/06 07:08:37;;;;;;;3.33;0.73;;;20.80;79.90;;;;;;5145958;27;47536;-75
2022/10/06 07:11:16;;;;;;;3.72;0.80;;;20.70;79.80;;;;;;5143381;27;45911;-75
2022/10/06 07:13:43;;;;;;;3.40;0.80;;;20.70;80.00;;;;;;5141003;27;45538;-74
2022/10/06 07:27:11;;;;;;;2.92;0.70;;;20.70;79.60;;;;;;5143109;27;45338;-75
2022/10/06 07:29:38;;;;;;;2.38;0.85;;;20.70;79.50;;;;;;5146095;27;45450;-75
2022/10/06 07:32:05;;;;;;;2.55;0.65;;;20.70;79.50;;;;;;5140866;27;45489;-75
2022/10/06 07:34:33;;;;;;;1.85;0.70;;;20.70;79.60;;;;;;5131131;27;45247;-74
2022/10/06 07:37:00;;;;;;;2.55;0.60;;;20.70;79.20;;;;;;5126554;27;45141;-74
2022/10/06 07:39:26;;;;;;;2.88;0.80;;;20.70;78.90;;;;;;5127165;27;47365;-74
2022/10/06 07:41:53;;;;;;;1.63;0.50;;;20.70;78.80;;;;;;5141947;27;45416;-74
2022/10/06 07:44:20;;;;;;;1.98;0.60;;;20.80;78.90;;;;;;5146605;27;45298;-75
2022/10/06 07:46:47;;;;;;;2.13;0.73;;;20.80;78.90;;;;;;5133493;27;45414;-75
2022/10/06 07:49:16;;;;;;;2.08;0.60;;;20.80;78.90;;;;;;5139609;27;46252;-75
2022/10/06 07:51:44;;;;;;;3.08;0.90;;;20.80;78.60;;;;;;5136345;27;45416;-75
2022/10/06 07:54:11;;;;;;;1.75;0.45;;;20.80;78.30;;;;;;5132924;27;45414;-75
2022/10/06 07:56:38;;;;;;;1.92;0.50;;;20.80;78.30;;;;;;5139113;27;45559;-75
2022/10/06 07:59:04;;;;;;;3.40;0.70;;;20.80;78.20;;;;;;5143404;27;45289;-75
2022/10/06 08:01:31;;;;;;;1.88;0.77;;;20.80;77.60;;;;;;5143763;27;45425;-75
2022/10/06 08:03:58;;;;;;;1.08;0.60;;;20.90;77.80;;;;;;5138196;27;45579;-75
2022/10/06 08:06:25;;;;;;;1.60;0.60;;;20.90;78.70;;;;;;5144825;27;45437;-75
2022/10/06 08:08:53;;;;;;;1.70;0.60;;;20.90;77.00;;;;;;5144237;27;46540;-75
2022/10/06 08:11:21;;;;;;;1.52;0.50;;;20.90;77.00;;;;;;5144031;27;45342;-75
2022/10/06 08:13:50;;;;;;;1.48;0.55;;;20.90;76.90;;;;;;5146963;27;45442;-74
2022/10/06 08:16:18;;;;;;;2.75;0.50;;;20.90;76.90;;;;;;5144785;27;45296;-74
2022/10/06 08:18:49;;;;;;;3.08;0.52;;;20.90;76.60;;;;;;5141645;27;47325;-74
2022/10/06 08:21:18;;;;;;;1.90;0.70;;;20.90;76.70;;;;;;5143119;27;45345;-74
2022/10/06 08:23:46;;;;;;;1.75;0.60;;;20.90;76.70;;;;;;5143468;27;45263;-74
2022/10/06 08:26:16;;;;;;;1.98;0.50;;;21.00;76.60;;;;;;5140722;27;45333;-74
2022/10/06 08:28:45;;;;;;;1.45;0.57;;;21.00;76.80;;;;;;5135364;27;45280;-74
2022/10/06 08:31:14;;;;;;;1.00;0.40;;;21.00;76.70;;;;;;5129417;27;45417;-74
2022/10/06 08:33:41;;;;;;;3.20;0.80;;;21.00;76.80;;;;;;5127955;27;45327;-74
2022/10/06 08:36:10;;;;;;;1.42;0.60;;;21.00;77.00;;;;;;5140506;27;45582;-75
2022/10/06 08:38:38;;;;;;;0.38;0.35;;;21.00;77.10;;;;;;5140570;27;47058;-75
2022/10/06 08:41:21;;;;;;;0.80;0.40;;;21.00;77.20;;;;;;5147042;27;45475;-74
2022/10/06 08:43:55;;;;;;;1.48;0.60;;;21.00;77.20;;;;;;5147064;27;45415;-74
2022/10/06 08:46:24;;;;;;;1.83;0.60;;;21.00;77.30;;;;;;5140752;27;45468;-75
2022/10/06 08:48:51;;;;;;;1.48;0.50;;;21.00;77.30;;;;;;5140923;27;46081;-74
2022/10/06 08:51:35;;;;;;;1.63;0.70;;;21.00;76.60;;;;;;5144831;27;45334;-70
2022/10/06 08:54:10;;;;;;;7.93;1.55;;;21.00;76.40;;;;;;5142626;27;45385;-74
2022/10/06 08:56:49;;;;;;;7.07;0.80;;;21.00;77.00;;;;;;5146777;27;45458;-73
2022/10/06 08:59:16;;;;;;;5.50;1.00;;;21.00;77.10;;;;;;5131919;27;46269;-69
2022/10/06 09:01:46;;;;;;;4.57;0.90;;;20.90;77.20;;;;;;5139825;27;45468;-71
2022/10/06 09:04:21;;;;;;;5.28;1.10;;;21.00;78.20;;;;;;5140351;27;45591;-72
2022/10/06 09:06:58;;;;;;;4.30;0.70;;;21.00;77.30;;;;;;5138746;27;45542;-71
2022/10/06 09:09:52;;;;;;;8.65;1.15;;;21.00;76.80;;;;;;5135669;27;48197;-72
2022/10/06 09:12:30;;;;;;;4.55;1.10;;;21.00;78.10;;;;;;5137054;27;45495;-71
2022/10/06 09:15:08;;;;;;;3.58;0.90;;;21.00;77.00;;;;;;5143403;27;45289;-71
2022/10/06 09:17:39;;;;;;;2.97;0.80;;;21.00;76.80;;;;;;5139197;27;45257;-71
2022/10/06 09:20:14;;;;;;;1.75;0.60;;;21.00;76.30;;;;;;5136533;27;46577;-72
2022/10/06 09:22:41;;;;;;;4.43;0.93;;;21.00;76.30;;;;;;5146457;27;45355;-72
2022/10/06 09:25:24;;;;;;;2.10;0.70;;;21.00;76.10;;;;;;5140039;27;45899;-71
2022/10/06 09:27:55;;;;;;;2.25;0.63;;;21.00;76.30;;;;;;5142895;27;45212;-72
2022/10/06 09:30:22;;;;;;;1.85;0.75;;;21.00;76.50;;;;;;5137660;27;46315;-72
2022/10/06 09:32:56;;;;;;;1.73;0.50;;;20.90;76.50;;;;;;5140165;27;45279;-71
2022/10/06 09:35:24;;;;;;;2.15;0.80;;;21.00;76.70;;;;;;5141400;27;45546;-71
2022/10/06 09:37:53;;;;;;;3.53;0.70;;;21.00;76.80;;;;;;5144015;27;45352;-73
2022/10/06 09:40:35;;;;;;;2.05;0.70;;;21.00;76.40;;;;;;5145318;27;48614;-71
2022/10/06 09:43:07;;;;;;;3.72;0.75;;;21.00;76.10;;;;;;5142905;27;45357;-72
2022/10/06 09:45:34;;;;;;;3.25;0.70;;;21.00;76.10;;;;;;5130227;27;45335;-71
2022/10/06 09:48:12;;;;;;;1.02;0.63;;;21.00;76.30;;;;;;5144999;27;45436;-71
2022/10/06 09:50:39;;;;;;;2.55;0.55;;;21.00;76.10;;;;;;5135837;27;47144;-72
2022/10/06 09:53:15;;;;;;;1.08;0.60;;;21.00;75.90;;;;;;5136672;27;45335;-72
2022/10/06 09:55:53;;;;;;;1.38;0.55;;;21.00;76.10;;;;;;5141487;27;45504;-72
2022/10/06 09:58:32;;;;;;;1.58;0.50;;;21.00;76.00;;;;;;5143737;27;45517;-71
2022/10/06 10:01:01;;;;;;;2.20;0.50;;;21.10;76.10;;;;;;5145904;27;46233;-71
2022/10/06 10:03:43;;;;;;;3.17;0.60;;;21.00;75.90;;;;;;5133735;27;45377;-71
2022/10/06 10:06:21;;;;;;;1.70;0.57;;;21.00;75.70;;;;;;5142231;27;45558;-71
2022/10/06 10:08:48;;;;;;;2.22;0.60;;;21.00;75.80;;;;;;5143896;27;45462;-71
2022/10/06 10:14:16;;;;;;;1.17;0.50;;;21.00;76.00;;;;;;5141493;27;45347;-72
2022/10/06 10:16:43;;;;;;;3.45;0.77;;;21.00;75.90;;;;;;5144764;27;45382;-71
2022/10/06 10:19:23;;;;;;;0.93;0.47;;;21.00;76.30;;;;;;5141363;27;45418;-72
2022/10/06 10:21:49;;;;;;;2.55;0.50;;;21.00;76.10;;;;;;5144873;27;48259;-71
2022/10/06 10:24:25;;;;;;;1.48;0.60;;;21.00;76.10;;;;;;5138891;27;45487;-71
2022/10/06 10:26:58;;;;;;;1.65;0.60;;;21.00;76.40;;;;;;5140490;27;45394;-71
2022/10/06 10:29:50;;;;;;;3.17;0.50;;;21.00;76.30;;;;;;5140073;27;45621;-72
2022/10/06 10:32:25;;;;;;;1.77;0.75;;;21.00;76.10;;;;;;5144464;27;46597;-71
2022/10/06 10:35:02;;;;;;;2.03;0.60;;;21.00;75.90;;;;;;5142025;27;45369;-72
2022/10/06 10:37:38;;;;;;;1.48;0.52;;;21.00;75.70;;;;;;5133811;27;45410;-72
2022/10/06 10:40:14;;;;;;;1.17;0.63;;;21.00;75.60;;;;;;5143291;27;45527;-72
2022/10/06 10:42:46;;;;;;;2.63;0.57;;;21.00;75.50;;;;;;5146037;27;47984;-71
2022/10/06 10:45:19;;;;;;;1.10;0.40;;;21.00;75.40;;;;;;5137233;27;45405;-71
2022/10/06 10:47:49;;;;;;;0.75;0.28;;;21.00;75.40;;;;;;5135847;27;45324;-72
2022/10/06 10:50:24;;;;;;;1.25;0.55;;;21.00;75.40;;;;;;5144612;27;45478;-71
2022/10/06 10:52:54;;;;;;;0.88;0.47;;;21.00;75.20;;;;;;5141049;27;47706;-71
2022/10/06 10:55:27;;;;;;;1.58;0.50;;;21.00;75.10;;;;;;5143835;27;46343;-71
2022/10/06 10:57:58;;;;;;;1.50;0.40;;;21.00;75.10;;;;;;5137503;27;45484;-72
2022/10/06 11:00:30;;;;;;;3.00;0.60;;;21.00;75.20;;;;;;5140464;27;45395;-72
2022/10/06 11:02:58;;;;;;;0.80;0.40;;;21.00;75.30;;;;;;5131136;27;45290;-72
2022/10/06 11:05:51;;;;;;;1.40;0.50;;;21.00;75.40;;;;;;5139768;27;45342;-71
2022/10/06 11:08:24;;;;;;;2.88;0.60;;;21.00;75.30;;;;;;5132570;27;45341;-68
2022/10/06 11:10:56;;;;;;;2.53;0.60;;;21.00;77.00;;;;;;5141960;27;45400;-74
2022/10/06 11:13:29;;;;;;;3.85;0.60;;;21.00;77.80;;;;;;5145110;27;46556;-77
2022/10/06 11:16:38;;;;;;;3.00;0.65;;;21.10;79.20;;;;;;5149115;27;45364;-76
2022/10/06 11:19:26;;;;;;;7.03;0.70;;;21.00;79.80;;;;;;5149153;27;45333;-77
2022/10/06 11:25:29;;;;;;;3.92;0.80;;;21.00;79.40;;;;;;5145910;27;45384;-76
2022/10/06 11:28:04;;;;;;;1.02;0.47;;;21.00;80.10;;;;;;5148951;27;45321;-77
2022/10/06 11:30:36;;;;;;;4.13;0.57;;;21.00;80.30;;;;;;5148945;27;45462;-76
2022/10/06 11:33:12;;;;;;;3.17;0.63;;;21.00;80.30;;;;;;5148847;27;45496;-76
2022/10/06 11:35:43;;;;;;;4.50;0.60;;;21.00;80.50;;;;;;5148863;27;45443;-77
2022/10/06 11:38:16;;;;;;;1.20;0.50;;;21.00;81.10;;;;;;5148467;27;45327;-77
2022/10/06 11:44:12;;;;;;;1.20;0.60;;;20.90;81.90;;;;;;5146161;27;45145;-77
2022/10/06 11:46:46;;;;;;;1.50;0.60;;;20.90;81.60;;;;;;5150506;27;45158;-77
2022/10/06 11:49:55;;;;;;;1.63;0.47;;;20.90;81.90;;;;;;5148452;27;46072;-77
2022/10/06 11:52:54;;;;;;;1.50;0.40;;;20.90;83.30;;;;;;5148637;27;45223;-77
2022/10/06 11:59:16;;;;;;;1.02;0.30;;;20.90;83.20;;;;;;5147136;27;45150;-77
2022/10/06 12:01:56;;;;;;;1.05;0.40;;;20.90;83.60;;;;;;5131169;27;45107;-77
2022/10/06 12:04:25;;;;;;;2.28;0.60;;;20.90;83.80;;;;;;5148562;27;45232;-77
2022/10/06 12:07:02;;;;;;;1.38;0.50;;;20.90;83.50;;;;;;5148193;27;45596;-77
2022/10/06 12:09:40;;;;;;;2.75;0.60;;;20.90;83.10;;;;;;5148215;27;47316;-77
2022/10/06 12:12:44;;;;;;;2.95;0.60;;;20.90;83.30;;;;;;5148267;27;45285;-77
2022/10/06 12:15:47;;;;;;;2.13;0.52;;;20.90;83.50;;;;;;5151843;27;45207;-77
2022/10/06 12:18:26;;;;;;;2.58;0.40;;;20.90;84.00;;;;;;5152008;27;45101;-77
2022/10/06 12:21:05;;;;;;;0.50;0.20;;;20.90;83.90;;;;;;5151890;27;45796;-77
2022/10/06 12:23:51;;;;;;;0.88;0.40;;;20.90;84.10;;;;;;5152328;27;45133;-77
2022/10/06 12:26:33;;;;;;;2.63;0.40;;;20.90;84.50;;;;;;5152150;27;45306;-77
2022/10/06 12:29:20;;;;;;;1.95;0.40;;;20.90;84.40;;;;;;5152035;27;45252;-77
2022/10/06 12:31:57;;;;;;;0.65;0.30;;;20.90;84.80;;;;;;5151713;27;45589;-77
2022/10/06 12:34:46;;;;;;;2.05;0.60;;;20.90;85.30;;;;;;5151975;27;45161;-77
2022/10/06 12:37:37;;;;;;;2.20;0.73;;;20.90;85.60;;;;;;5152085;27;45292;-77
2022/10/06 12:40:40;;;;;;;1.38;0.50;;;20.90;85.80;;;;;;5151795;27;45304;-77
2022/10/06 12:43:26;;;;;;;0.93;0.40;;;20.90;86.30;;;;;;5151530;27;45956;-78
2022/10/06 12:49:45;;;;;;;0.40;0.30;;;20.90;85.70;;;;;;5148713;27;45341;-78
2022/10/06 12:53:03;;;;;;;0.75;0.40;;;20.90;85.80;;;;;;5152032;27;45288;-77
